Time;durP1;ratioP1;P1;durP2;ratioP2;P2;SDS_P1;SDS_P2;PMS_P1;PMS_P2;Temp;Humidity;BMP_temperature;BMP_pressure;BME280_temperature;BME280_humidity;BME280_pressure;Samples;Min_cycle;Max_cycle;Signal;HPM_P1;HPM_P2
2023/12/21 00:00:04;;;;;;;0.10;0.10;;;;;;;1.61;68.90;96547.59;6099500;29;20052;-66
2023/12/21 00:03:09;;;;;;;0.20;0.20;;;;;;;1.75;68.62;96558.34;6100664;29;20044;-67
2023/12/21 00:06:16;;;;;;;0.10;0.10;;;;;;;1.73;68.55;96573.97;6083993;29;20050;-66
2023/12/21 00:09:20;;;;;;;0.10;0.10;;;;;;;1.71;68.66;96570.56;6100334;29;20051;-67
2023/12/21 00:12:21;;;;;;;0.55;0.20;;;;;;;1.59;69.11;96568.41;6099648;29;20430;-67
2023/12/21 00:15:23;;;;;;;0.10;0.10;;;;;;;1.50;69.74;96555.72;6083011;29;20044;-66
2023/12/21 00:18:26;;;;;;;0.00;0.00;;;;;;;1.53;69.92;96576.41;6082992;29;20080;-66
2023/12/21 00:21:30;;;;;;;0.10;0.10;;;;;;;1.53;69.59;96547.88;6100093;29;20056;-67
2023/12/21 00:24:32;;;;;;;0.10;0.10;;;;;;;1.59;69.79;96555.44;6099468;29;20048;-67
2023/12/21 00:27:33;;;;;;;0.08;0.08;;;;;;;1.64;69.74;96563.88;6099450;29;20196;-66
2023/12/21 00:30:40;;;;;;;0.10;0.10;;;;;;;1.59;69.94;96555.44;6100130;29;20146;-67
2023/12/21 00:33:52;;;;;;;0.10;0.10;;;;;;;1.63;70.12;96580.34;6100071;29;20224;-66
2023/12/21 00:36:56;;;;;;;0.10;0.10;;;;;;;1.51;70.04;96567.81;6099773;29;20044;-66
2023/12/21 00:40:00;;;;;;;0.10;0.10;;;;;;;1.51;70.24;96579.03;6099817;29;20036;-66
2023/12/21 00:43:01;;;;;;;0.10;0.10;;;;;;;1.59;70.22;96576.19;6082727;29;20055;-66
2023/12/21 00:46:05;;;;;;;0.60;0.13;;;;;;;1.67;70.44;96589.75;6083387;29;20044;-66
2023/12/21 00:49:17;;;;;;;0.25;0.20;;;;;;;1.65;70.38;96588.94;6100069;29;20052;-66
2023/12/21 00:52:22;;;;;;;0.10;0.10;;;;;;;1.60;71.06;96588.25;6099316;29;20585;-67
2023/12/21 00:55:26;;;;;;;0.20;0.20;;;;;;;1.71;70.80;96593.06;6099137;29;20083;-66
2023/12/21 00:58:30;;;;;;;0.20;0.20;;;;;;;1.80;70.38;96596.19;6098892;29;20052;-67
2023/12/21 01:01:31;;;;;;;;;;;;;;;1.86;70.70;96599.47;6099153;29;20048;-66
2023/12/21 01:04:38;;;;;;;0.30;0.17;;;;;;;1.97;70.16;96602.53;6099079;29;19923;-66
2023/12/21 01:07:42;;;;;;;0.25;0.25;;;;;;;1.91;70.44;96602.75;6099655;29;20048;-67
2023/12/21 01:10:45;;;;;;;0.30;0.20;;;;;;;1.79;71.16;96615.25;6085580;29;20237;-66
2023/12/21 01:13:51;;;;;;;;;;;;;;;2.05;70.43;96617.84;6072915;29;20044;-67
2023/12/21 01:16:57;;;;;;;0.20;0.20;;;;;;;1.91;71.20;96610.53;6104162;29;19923;-66
2023/12/21 01:20:03;;;;;;;0.38;0.20;;;;;;;1.95;70.91;96625.09;6103999;29;20052;-67
2023/12/21 01:23:06;;;;;;;0.10;0.10;;;;;;;1.88;71.53;96624.47;6103341;29;20052;-66
2023/12/21 01:26:07;;;;;;;0.20;0.20;;;;;;;1.93;71.30;96626.91;6085895;29;20060;-67
2023/12/21 01:29:09;;;;;;;0.22;0.20;;;;;;;1.93;71.68;96621.72;6103558;29;20059;-66
2023/12/21 01:32:13;;;;;;;0.22;0.22;;;;;;;2.02;71.72;96616.22;6103401;29;20059;-67
2023/12/21 01:35:20;;;;;;;0.30;0.30;;;;;;;2.02;71.81;96627.44;6103493;29;20047;-66
2023/12/21 01:38:21;;;;;;;0.22;0.22;;;;;;;1.96;71.98;96634.59;6102916;29;20063;-67
2023/12/21 01:41:23;;;;;;;0.43;0.28;;;;;;;2.01;72.18;96645.66;6102972;29;20083;-66
2023/12/21 01:44:24;;;;;;;0.40;0.25;;;;;;;2.09;72.39;96643.63;6103134;29;20514;-67
2023/12/21 01:47:31;;;;;;;0.50;0.50;;;;;;;2.07;72.81;96640.25;6103415;29;20048;-67
2023/12/21 01:50:36;;;;;;;0.60;0.50;;;;;;;2.04;72.97;96648.16;6102806;29;20062;-67
2023/12/21 01:53:39;;;;;;;1.67;0.40;;;;;;;2.01;73.28;96643.06;6102472;29;20048;-66
2023/12/21 01:56:45;;;;;;;0.60;0.57;;;;;;;1.96;73.90;96653.59;6102192;29;20150;-66
2023/12/21 01:59:49;;;;;;;2.45;0.40;;;;;;;2.03;73.68;96657.66;6102467;29;20051;-67
2023/12/21 02:02:53;;;;;;;;;;;;;;;2.22;73.38;96667.41;6102591;29;20072;-66
2023/12/21 02:05:59;;;;;;;0.68;0.30;;;;;;;2.14;73.43;96667.69;6103048;29;19923;-67
2023/12/21 02:09:03;;;;;;;0.25;0.20;;;;;;;2.14;73.27;96661.63;6102814;29;20060;-68
2023/12/21 02:12:05;;;;;;;0.35;0.32;;;;;;;2.10;73.83;96673.03;6102273;29;20430;-66
2023/12/21 02:15:08;;;;;;;1.38;0.30;;;;;;;2.05;73.83;96672.34;6102085;29;20537;-66
2023/12/21 02:18:11;;;;;;;0.57;0.40;;;;;;;2.10;73.96;96670.44;6102572;29;20147;-66
2023/12/21 02:21:14;;;;;;;2.00;0.40;;;;;;;2.01;74.48;96679.41;6100827;29;20056;-67
2023/12/21 02:24:20;;;;;;;1.00;0.32;;;;;;;2.04;74.46;96681.88;6102581;29;20044;-67
2023/12/21 02:27:21;;;;;;;0.30;0.25;;;;;;;2.13;74.42;96681.56;6102616;29;20072;-66
2023/12/21 02:30:23;;;;;;;0.40;0.32;;;;;;;2.09;74.44;96687.75;6085073;29;20052;-66
2023/12/21 02:33:25;;;;;;;0.68;0.38;;;;;;;2.08;74.75;96683.47;6101778;29;20418;-67
2023/12/21 02:36:27;;;;;;;0.50;0.50;;;;;;;2.20;74.42;96703.81;6101959;29;20075;-67
2023/12/21 02:39:31;;;;;;;0.80;0.65;;;;;;;2.20;74.52;96703.81;6101692;29;20135;-66
2023/12/21 02:42:38;;;;;;;0.32;0.32;;;;;;;2.14;74.62;96682.41;6102283;29;20048;-67
2023/12/21 02:45:45;;;;;;;0.60;0.55;;;;;;;2.23;74.59;96703.69;6102348;29;20048;-67
2023/12/21 02:48:48;;;;;;;0.47;0.47;;;;;;;2.22;74.83;96696.81;6102164;29;20052;-68
2023/12/21 02:51:52;;;;;;;0.60;0.60;;;;;;;2.21;75.00;96709.88;6101714;29;20059;-67
2023/12/21 02:54:55;;;;;;;0.50;0.50;;;;;;;2.20;75.36;96719.38;6101335;29;20048;-67
2023/12/21 02:57:57;;;;;;;1.63;0.67;;;;;;;2.19;75.31;96717.69;6101386;29;20676;-66
2023/12/21 03:01:01;;;;;;;0.35;0.35;;;;;;;2.22;75.22;96738.34;6100983;29;20056;-68
2023/12/21 03:04:02;;;;;;;0.50;0.40;;;;;;;2.27;75.10;96719.19;6100765;29;20063;-66
2023/12/21 03:07:08;;;;;;;0.65;0.50;;;;;;;2.37;74.96;96746.50;6101604;29;20052;-66
2023/12/21 03:10:15;;;;;;;0.40;0.40;;;;;;;2.38;74.74;96727.47;6101330;29;20138;-67
2023/12/21 03:13:20;;;;;;;0.70;0.60;;;;;;;2.34;75.36;96736.25;6100117;29;20051;-67
2023/12/21 03:16:24;;;;;;;0.40;0.38;;;;;;;2.36;75.37;96734.44;6101086;29;21169;-67
2023/12/21 03:19:25;;;;;;;0.52;0.50;;;;;;;2.41;75.17;96753.31;6100110;29;20040;-66
2023/12/21 03:22:29;;;;;;;0.90;0.55;;;;;;;2.41;75.36;96748.97;6101406;29;20040;-67
2023/12/21 03:25:33;;;;;;;0.65;0.55;;;;;;;2.46;74.87;96741.88;6101061;29;20048;-66
2023/12/21 03:28:44;;;;;;;0.40;0.40;;;;;;;2.53;74.78;96742.50;6084217;29;20052;-66
2023/12/21 03:31:45;;;;;;;0.47;0.47;;;;;;;2.57;74.57;96749.25;6082838;29;20056;-66
2023/12/21 03:34:49;;;;;;;2.30;0.30;;;;;;;2.54;74.57;96757.16;6067842;29;21043;-67
2023/12/21 03:37:50;;;;;;;0.45;0.45;;;;;;;2.55;74.69;96765.78;6100336;29;20052;-66
2023/12/21 03:40:51;;;;;;;0.40;0.40;;;;;;;2.55;74.61;96752.81;6100172;29;20063;-67
2023/12/21 03:43:53;;;;;;;0.50;0.50;;;;;;;2.54;74.81;96759.75;6100075;29;20052;-68
2023/12/21 03:46:56;;;;;;;0.40;0.40;;;;;;;2.63;74.57;96768.97;6100174;29;20140;-66
2023/12/21 03:50:00;;;;;;;0.50;0.50;;;;;;;2.70;74.12;96762.69;6100358;29;20454;-65
2023/12/21 03:53:06;;;;;;;0.43;0.43;;;;;;;2.74;74.00;96764.25;6100619;29;20088;-67
2023/12/21 03:56:10;;;;;;;0.68;0.60;;;;;;;2.60;74.45;96758.69;6099981;29;20131;-66
2023/12/21 03:59:13;;;;;;;0.60;0.60;;;;;;;2.47;74.57;96763.50;6100294;29;20056;-66
2023/12/21 04:02:19;;;;;;;;;;;;;;;2.58;74.49;96766.56;6101024;29;20569;-66
2023/12/21 04:05:25;;;;;;;1.50;0.60;;;;;;;2.47;74.75;96776.47;6100450;29;19923;-67
2023/12/21 04:08:32;;;;;;;0.77;0.77;;;;;;;2.37;74.93;96764.69;6100359;29;20047;-65
2023/12/21 04:11:36;;;;;;;1.30;0.88;;;;;;;2.42;75.02;96773.19;6100120;29;20418;-67
2023/12/21 04:14:44;;;;;;;0.45;0.45;;;;;;;2.55;74.57;96784.84;6099992;29;20060;-66
2023/12/21 04:17:54;;;;;;;1.20;0.75;;;;;;;2.59;74.13;96794.22;6099925;29;20075;-67
2023/12/21 04:20:57;;;;;;;2.38;1.75;;;;;;;2.47;74.76;96805.03;6099553;29;20067;-66
2023/12/21 04:24:06;;;;;;;1.88;1.17;;;;;;;2.62;74.39;96804.50;6100020;29;20056;-67
2023/12/21 04:27:13;;;;;;;1.60;0.90;;;;;;;2.81;73.65;96785.69;6100089;29;20072;-67
2023/12/21 04:30:22;;;;;;;1.17;0.80;;;;;;;2.90;73.47;96790.56;6100032;29;20056;-67
2023/12/21 04:33:23;;;;;;;2.08;0.93;;;;;;;2.85;73.38;96795.91;6082500;29;20048;-66
2023/12/21 04:36:27;;;;;;;1.60;1.20;;;;;;;2.60;73.78;96811.50;6100003;29;20044;-67
2023/12/21 04:39:31;;;;;;;1.30;1.00;;;;;;;2.57;74.03;96811.59;6100008;29;20044;-66
2023/12/21 04:42:35;;;;;;;1.42;1.20;;;;;;;2.38;74.47;96820.94;6099754;29;20040;-67
2023/12/21 04:45:37;;;;;;;1.58;1.45;;;;;;;2.34;75.05;96824.53;6102511;29;20139;-67
2023/12/21 04:48:41;;;;;;;2.25;1.55;;;;;;;2.47;74.60;96836.22;6104744;29;20048;-67
2023/12/21 04:51:50;;;;;;;1.90;1.33;;;;;;;2.55;74.61;96857.59;6104301;29;20078;-66
2023/12/21 04:54:54;;;;;;;2.13;1.27;;;;;;;2.61;74.49;96833.16;6104413;29;20060;-66
2023/12/21 04:57:57;;;;;;;2.13;1.45;;;;;;;2.45;75.05;96830.19;6104392;29;20052;-66
2023/12/21 05:00:58;;;;;;;2.08;1.88;;;;;;;2.51;74.96;96827.41;6103350;29;20450;-67
2023/12/21 05:04:02;;;;;;;2.33;1.77;;;;;;;2.62;74.69;96830.47;6103807;29;20047;-67
2023/12/21 05:07:10;;;;;;;5.55;3.58;;;;;;;2.54;74.69;96831.66;6103873;29;20051;-66
2023/12/21 05:10:17;;;;;;;5.70;3.47;;;;;;;2.53;74.88;96833.41;6104136;29;20048;-67
2023/12/21 05:13:22;;;;;;;6.28;3.67;;;;;;;2.46;74.66;96826.69;6103692;29;20052;-66
2023/12/21 05:16:25;;;;;;;5.10;4.60;;;;;;;2.50;74.58;96848.25;6103954;29;20048;-67
2023/12/21 05:19:30;;;;;;;4.03;3.42;;;;;;;2.69;74.34;96847.56;6103013;29;20055;-67
2023/12/21 05:22:35;;;;;;;3.30;2.97;;;;;;;2.62;74.25;96851.25;6086225;29;20059;-67
2023/12/21 05:25:39;;;;;;;3.38;2.50;;;;;;;2.75;73.44;96856.91;6103512;29;20051;-66
2023/12/21 05:28:42;;;;;;;4.00;2.22;;;;;;;2.76;73.56;96862.94;6102949;29;20051;-68
2023/12/21 05:31:43;;;;;;;5.90;4.75;;;;;;;2.55;74.41;96856.72;6102782;29;20564;-65
2023/12/21 05:34:44;;;;;;;9.98;7.40;;;;;;;2.69;73.68;96878.75;6102886;29;20048;-66
2023/12/21 05:37:48;;;;;;;;;;;;;;;3.08;72.45;96891.25;6103160;29;20063;-66
2023/12/21 05:40:49;;;;;;;3.40;2.55;;;;;;;3.06;71.97;96887.88;6103284;29;20373;-66
2023/12/21 05:43:55;;;;;;;3.83;3.00;;;;;;;2.99;72.01;96886.38;6102761;29;20052;-67
2023/12/21 05:46:57;;;;;;;2.95;2.25;;;;;;;3.14;71.85;96895.41;6102672;29;20052;-67
2023/12/21 05:49:58;;;;;;;3.00;2.67;;;;;;;3.11;71.52;96891.19;6102559;29;20112;-67
2023/12/21 05:53:03;;;;;;;4.00;2.70;;;;;;;3.10;71.58;96889.47;6102424;29;20057;-67
2023/12/21 05:56:05;;;;;;;3.53;2.33;;;;;;;3.23;71.61;96889.03;6085607;29;20063;-65
2023/12/21 05:59:10;;;;;;;2.85;2.10;;;;;;;3.26;71.77;96886.34;6102989;29;20056;-66
2023/12/21 06:02:17;;;;;;;2.55;1.92;;;;;;;3.33;71.80;96880.84;6102950;29;20076;-67
2023/12/21 06:05:21;;;;;;;1.67;1.55;;;;;;;3.47;71.70;96893.34;6102774;29;20052;-67
2023/12/21 06:08:27;;;;;;;3.00;2.00;;;;;;;3.51;71.75;96887.16;6086196;29;20043;-66
2023/12/21 06:11:28;;;;;;;3.90;1.70;;;;;;;3.54;71.73;96891.41;6102337;29;20052;-67
2023/12/21 06:14:30;;;;;;;1.75;1.42;;;;;;;3.47;72.04;96885.56;6102242;29;20514;-67
2023/12/21 06:17:33;;;;;;;1.83;1.45;;;;;;;3.52;72.02;96909.66;6102524;29;20129;-66
2023/12/21 06:20:37;;;;;;;2.42;1.83;;;;;;;3.53;72.21;96898.34;6102689;29;20052;-66
2023/12/21 06:23:41;;;;;;;1.83;1.65;;;;;;;3.76;71.41;96899.25;6102721;29;20032;-67
2023/12/21 06:26:48;;;;;;;4.13;1.70;;;;;;;3.86;70.71;96905.81;6102243;29;20052;-67
2023/12/21 06:29:49;;;;;;;2.25;1.80;;;;;;;3.88;70.36;96909.22;6101678;29;20127;-67
2023/12/21 06:32:56;;;;;;;2.63;2.10;;;;;;;4.10;69.72;96909.22;6085823;29;20060;-67
2023/12/21 06:36:03;;;;;;;2.63;2.03;;;;;;;4.21;69.07;96912.25;6102470;29;20414;-67
2023/12/21 06:39:04;;;;;;;;;;;;;;;4.44;67.99;96908.75;6102180;29;20052;-67
2023/12/21 06:42:06;;;;;;;3.40;1.70;;;;;;;4.41;67.94;96902.81;6101665;29;19946;-68
2023/12/21 06:45:12;;;;;;;3.72;2.75;;;;;;;4.42;68.45;96905.38;6102215;29;20052;-66
2023/12/21 06:48:20;;;;;;;3.33;2.03;;;;;;;4.89;67.30;96905.16;6102230;29;20541;-67
2023/12/21 06:51:24;;;;;;;2.50;1.85;;;;;;;5.08;66.91;96914.84;6101704;29;20052;-68
2023/12/21 06:54:29;;;;;;;2.22;2.03;;;;;;;5.40;65.25;96916.91;6101501;29;20044;-66
2023/12/21 06:57:33;;;;;;;1.58;1.48;;;;;;;5.36;64.73;96904.91;6102165;29;20040;-66
2023/12/21 07:00:40;;;;;;;2.28;2.03;;;;;;;5.22;64.65;96917.72;6101579;29;20055;-67
2023/12/21 07:03:43;;;;;;;5.40;2.60;;;;;;;5.22;64.43;96901.22;6084556;29;20043;-67
2023/12/21 07:06:48;;;;;;;2.20;1.88;;;;;;;4.97;64.58;96917.06;6101006;29;20788;-67
2023/12/21 07:09:49;;;;;;;1.80;1.70;;;;;;;4.81;65.04;96928.13;6084504;29;20423;-67
2023/12/21 07:12:56;;;;;;;2.60;1.73;;;;;;;4.81;65.05;96916.84;6101200;29;20088;-67
2023/12/21 07:16:04;;;;;;;1.15;1.05;;;;;;;4.70;65.51;96940.75;6101867;29;20056;-67
2023/12/21 07:19:06;;;;;;;1.83;1.40;;;;;;;5.11;64.68;96936.41;6100618;29;20048;-67
2023/12/21 07:22:10;;;;;;;1.42;1.25;;;;;;;5.85;62.87;96923.63;6100646;29;20403;-67
2023/12/21 07:25:18;;;;;;;1.63;1.13;;;;;;;6.74;60.06;96934.34;6101041;29;20455;-67
2023/12/21 07:28:22;;;;;;;1.45;1.23;;;;;;;6.32;60.03;96921.53;6100984;29;20461;-66
2023/12/21 07:31:23;;;;;;;1.27;1.08;;;;;;;5.73;61.74;96945.06;6101019;29;20498;-66
2023/12/21 07:34:28;;;;;;;1.08;0.98;;;;;;;5.40;62.38;96931.72;6100945;29;20058;-67
2023/12/21 07:37:30;;;;;;;1.45;1.30;;;;;;;5.03;64.05;96924.63;6084027;29;20052;-66
2023/12/21 07:40:31;;;;;;;1.05;0.95;;;;;;;5.03;64.53;96912.41;6100323;29;20646;-68
2023/12/21 07:43:37;;;;;;;1.52;1.20;;;;;;;5.02;64.69;96915.09;6100761;29;20044;-67
2023/12/21 07:46:38;;;;;;;1.20;0.97;;;;;;;5.23;64.82;96914.19;6100077;29;20056;-67
2023/12/21 07:49:45;;;;;;;1.80;1.02;;;;;;;5.31;64.53;96916.47;6100716;29;20445;-67
2023/12/21 07:52:48;;;;;;;0.85;0.75;;;;;;;5.37;64.38;96909.22;6099950;29;20059;-67
2023/12/21 07:55:54;;;;;;;0.65;0.65;;;;;;;5.60;64.42;96915.19;6100493;29;20072;-67
2023/12/21 07:59:04;;;;;;;0.90;0.50;;;;;;;5.36;64.68;96951.88;6100559;29;20044;-67
2023/12/21 08:02:08;;;;;;;1.60;1.10;;;;;;;5.13;65.27;96929.38;6100622;29;20114;-67
2023/12/21 08:05:14;;;;;;;1.23;0.80;;;;;;;5.13;65.67;96925.94;6100218;29;20047;-67
2023/12/21 08:08:19;;;;;;;1.15;0.80;;;;;;;5.00;66.66;96928.19;6099604;29;20055;-67
2023/12/21 08:11:21;;;;;;;3.10;1.02;;;;;;;4.92;66.99;96936.34;6099275;29;20052;-67
2023/12/21 08:14:27;;;;;;;1.05;0.98;;;;;;;4.92;67.23;96931.13;6100177;29;20127;-67
2023/12/21 08:17:32;;;;;;;2.92;0.75;;;;;;;4.85;67.88;96921.88;6100220;29;20830;-66
2023/12/21 08:20:36;;;;;;;0.70;0.70;;;;;;;4.73;68.59;96919.78;6099455;29;20040;-67
2023/12/21 08:23:42;;;;;;;0.60;0.60;;;;;;;4.78;68.38;96932.59;6099430;29;20100;-67
2023/12/21 08:26:46;;;;;;;0.68;0.40;;;;;;;4.60;68.60;96913.34;6099972;29;20048;-66
2023/12/21 08:29:47;;;;;;;0.50;0.40;;;;;;;4.70;68.71;96904.25;6099764;29;20144;-67
2023/12/21 08:32:54;;;;;;;1.25;0.80;;;;;;;4.47;69.49;96928.63;6099734;29;20055;-67
2023/12/21 08:35:58;;;;;;;1.15;0.60;;;;;;;4.48;69.69;96920.75;6099632;29;20529;-67
2023/12/21 08:39:01;;;;;;;0.80;0.60;;;;;;;4.42;70.10;96931.44;6099881;29;20495;-66
2023/12/21 08:42:02;;;;;;;0.98;0.80;;;;;;;4.36;70.12;96931.66;6099726;29;20054;-66
2023/12/21 08:45:08;;;;;;;1.70;0.50;;;;;;;4.76;68.97;96929.22;6099232;29;20687;-66
2023/12/21 08:48:13;;;;;;;0.47;0.40;;;;;;;4.63;69.04;96929.72;6099672;29;20051;-67
2023/12/21 08:51:16;;;;;;;0.40;0.40;;;;;;;4.74;69.16;96947.53;6099834;29;20056;-65
2023/12/21 08:54:18;;;;;;;0.50;0.50;;;;;;;4.59;69.13;96906.47;6098959;29;20052;-67
2023/12/21 08:57:21;;;;;;;0.57;0.52;;;;;;;4.55;69.68;96899.66;6082684;29;20403;-65
2023/12/21 09:00:26;;;;;;;0.40;0.40;;;;;;;4.46;69.73;96887.84;6099993;29;20055;-66
2023/12/21 09:03:30;;;;;;;0.50;0.47;;;;;;;4.46;69.69;96909.53;6099774;29;20055;-66
2023/12/21 09:06:38;;;;;;;0.98;0.70;;;;;;;4.42;70.30;96913.19;6099653;29;20127;-68
2023/12/21 09:09:40;;;;;;;0.40;0.40;;;;;;;4.55;70.32;96928.31;6098633;29;20059;-68
2023/12/21 09:12:45;;;;;;;0.63;0.30;;;;;;;4.62;69.69;96927.19;6098727;29;20425;-68
2023/12/21 09:15:47;;;;;;;0.30;0.30;;;;;;;4.70;69.52;96925.13;6098833;29;20426;-65
2023/12/21 09:18:54;;;;;;;0.43;0.30;;;;;;;4.90;69.21;96956.44;6099102;29;20510;-67
2023/12/21 09:22:01;;;;;;;0.50;0.40;;;;;;;4.90;68.84;96947.75;6099003;29;20040;-66
2023/12/21 09:25:03;;;;;;;1.30;0.30;;;;;;;4.89;69.32;96941.69;6098850;29;20131;-66
2023/12/21 09:28:08;;;;;;;0.50;0.50;;;;;;;5.00;68.48;96963.88;6099406;29;20048;-66
2023/12/21 09:31:09;;;;;;;0.30;0.30;;;;;;;5.03;68.36;96948.09;6101229;29;20055;-67
2023/12/21 09:34:11;;;;;;;0.70;0.40;;;;;;;4.89;68.75;96956.47;6103083;29;20052;-68
2023/12/21 09:37:14;;;;;;;0.40;0.40;;;;;;;4.92;69.13;96951.97;6102946;29;20048;-66
2023/12/21 09:40:15;;;;;;;0.40;0.40;;;;;;;4.89;68.84;96940.84;6103508;29;20164;-66
2023/12/21 09:43:22;;;;;;;0.40;0.40;;;;;;;4.86;68.94;96952.22;6102992;29;20055;-66
2023/12/21 09:46:25;;;;;;;1.20;0.40;;;;;;;4.88;68.93;96923.50;6102512;29;20055;-67
2023/12/21 09:49:36;;;;;;;0.30;0.30;;;;;;;4.88;68.72;96960.84;6102495;29;20056;-68
2023/12/21 09:52:41;;;;;;;0.77;0.40;;;;;;;4.82;68.82;96940.25;6103370;29;20044;-66
2023/12/21 09:55:44;;;;;;;0.40;0.40;;;;;;;4.81;68.91;96938.56;6103191;29;20048;-67
2023/12/21 09:58:46;;;;;;;1.65;0.30;;;;;;;4.69;69.49;96950.31;6085449;29;20135;-67
2023/12/21 10:01:50;;;;;;;0.30;0.27;;;;;;;4.74;69.55;96937.09;6102987;29;20052;-66
2023/12/21 10:04:52;;;;;;;0.30;0.30;;;;;;;4.61;69.75;96938.50;6102436;29;20044;-66
2023/12/21 10:07:53;;;;;;;0.73;0.60;;;;;;;4.65;69.55;96937.47;6102756;29;20040;-67
2023/12/21 10:10:55;;;;;;;0.57;0.32;;;;;;;4.48;70.10;96945.97;6102708;29;20040;-66
2023/12/21 10:14:01;;;;;;;0.50;0.30;;;;;;;4.19;70.77;96915.81;6102555;29;20494;-66
2023/12/21 10:17:05;;;;;;;;;;;;;;;4.30;70.40;96916.25;6102409;29;20059;-65
2023/12/21 10:20:11;;;;;;;0.52;0.30;;;;;;;4.17;71.30;96925.47;6102587;29;19990;-67
2023/12/21 10:23:16;;;;;;;0.68;0.30;;;;;;;3.94;71.67;96916.78;6102337;29;20086;-67
2023/12/21 10:26:23;;;;;;;0.57;0.40;;;;;;;3.90;71.61;96907.38;6102302;29;20051;-66
2023/12/21 10:29:29;;;;;;;4.57;0.55;;;;;;;3.92;71.83;96931.59;6102510;29;20127;-67
2023/12/21 10:32:32;;;;;;;0.50;0.45;;;;;;;3.81;72.39;96945.00;6101556;29;20056;-66
2023/12/21 10:35:39;;;;;;;0.40;0.40;;;;;;;3.64;73.28;96936.97;6102145;29;20044;-69
2023/12/21 10:38:44;;;;;;;1.27;0.70;;;;;;;3.55;73.84;96945.97;6101450;29;20127;-67
2023/12/21 10:41:53;;;;;;;0.80;0.50;;;;;;;3.55;73.78;96951.16;6101228;29;20048;-67
2023/12/21 10:44:59;;;;;;;0.80;0.60;;;;;;;3.46;73.76;96946.31;6101879;29;20052;-66
2023/12/21 10:48:08;;;;;;;0.55;0.40;;;;;;;3.46;74.54;96953.25;6101885;29;20048;-68
2023/12/21 10:51:12;;;;;;;0.90;0.50;;;;;;;3.46;74.47;96953.25;6084792;29;20071;-67
2023/12/21 10:54:18;;;;;;;;;;;;;;;3.63;74.19;96966.50;6102326;29;20044;-66
2023/12/21 10:57:21;;;;;;;0.85;0.35;;;;;;;3.66;74.21;96965.56;6101244;29;19999;-67
2023/12/21 11:00:28;;;;;;;0.28;0.28;;;;;;;3.90;73.46;96964.66;6101287;29;20059;-67
2023/12/21 11:03:32;;;;;;;;;;;;;;;3.94;72.79;96975.81;6102329;29;20048;-67
2023/12/21 11:06:37;;;;;;;0.22;0.22;;;;;;;4.00;72.35;96986.84;6101625;29;19945;-66
2023/12/21 11:09:43;;;;;;;0.32;0.30;;;;;;;4.00;72.42;97001.63;6100733;29;20171;-67
2023/12/21 11:12:50;;;;;;;0.20;0.20;;;;;;;4.15;71.72;97026.25;6101261;29;20044;-67
2023/12/21 11:15:54;;;;;;;0.30;0.30;;;;;;;4.30;71.34;97010.03;6101822;29;20048;-66
2023/12/21 11:19:04;;;;;;;0.22;0.22;;;;;;;4.40;70.65;97008.78;6101580;29;20093;-67
2023/12/21 11:22:12;;;;;;;0.30;0.30;;;;;;;4.19;71.67;97006.97;6101344;29;20047;-66
2023/12/21 11:25:20;;;;;;;0.30;0.20;;;;;;;4.24;71.77;97005.06;6100433;29;20059;-66
2023/12/21 11:28:32;;;;;;;0.40;0.35;;;;;;;4.35;71.58;97008.09;6100544;29;20131;-67
2023/12/21 11:31:40;;;;;;;0.28;0.28;;;;;;;4.23;72.36;97008.56;6100445;29;20075;-66
2023/12/21 11:34:42;;;;;;;0.20;0.20;;;;;;;4.25;72.22;97012.81;6100264;29;20055;-66
2023/12/21 11:37:54;;;;;;;0.60;0.38;;;;;;;4.29;72.30;97034.38;6100895;29;20047;-66
2023/12/21 11:41:01;;;;;;;0.20;0.20;;;;;;;4.38;71.64;97039.25;6100447;29;20400;-67
2023/12/21 11:44:06;;;;;;;0.28;0.15;;;;;;;4.30;72.14;97037.84;6100275;29;20044;-66
2023/12/21 11:47:14;;;;;;;0.30;0.30;;;;;;;4.36;72.01;97035.88;6083820;29;20439;-67
2023/12/21 11:50:23;;;;;;;0.30;0.30;;;;;;;4.47;71.28;97041.53;6100361;29;20055;-67
2023/12/21 11:53:25;;;;;;;0.30;0.30;;;;;;;4.40;71.74;97047.88;6099774;29;20075;-66
2023/12/21 11:56:36;;;;;;;0.40;0.22;;;;;;;4.54;71.20;97049.13;6084234;29;20048;-67
2023/12/21 11:59:38;;;;;;;0.80;0.28;;;;;;;4.43;71.50;97045.16;6100162;29;20139;-66
2023/12/21 12:02:46;;;;;;;0.75;0.50;;;;;;;4.34;71.87;97061.13;6100201;29;20040;-66
2023/12/21 12:05:53;;;;;;;0.68;0.40;;;;;;;4.43;71.67;97067.75;6100036;29;20060;-67
2023/12/21 12:08:55;;;;;;;0.30;0.30;;;;;;;4.51;71.79;97076.13;6099240;29;20048;-66
2023/12/21 12:11:59;;;;;;;0.47;0.40;;;;;;;4.42;71.76;97060.84;6083919;29;20506;-66
2023/12/21 12:15:03;;;;;;;0.50;0.35;;;;;;;4.38;72.72;97091.34;6100319;29;20040;-66
2023/12/21 12:18:08;;;;;;;1.00;0.95;;;;;;;4.39;72.97;97081.81;6100346;29;20495;-66
2023/12/21 12:21:16;;;;;;;1.17;0.98;;;;;;;4.37;73.59;97100.09;6100328;29;20044;-67
2023/12/21 12:24:21;;;;;;;1.80;0.70;;;;;;;4.40;74.11;97089.56;6100158;29;20518;-67
2023/12/21 12:27:23;;;;;;;1.00;0.90;;;;;;;4.20;74.28;97098.09;6098884;29;20060;-66
2023/12/21 12:30:27;;;;;;;1.35;1.20;;;;;;;4.25;74.40;97124.84;6083524;29;20051;-67
2023/12/21 12:33:33;;;;;;;0.73;0.68;;;;;;;4.31;74.65;97110.75;6099627;29;20502;-66
2023/12/21 12:36:40;;;;;;;1.02;0.90;;;;;;;4.39;74.60;97111.31;6099836;29;20656;-67
2023/12/21 12:39:52;;;;;;;1.95;1.30;;;;;;;4.33;74.63;97102.84;6099217;29;20415;-66
2023/12/21 12:42:58;;;;;;;1.50;1.25;;;;;;;4.45;74.75;97108.47;6099636;29;20399;-67
2023/12/21 12:46:04;;;;;;;1.33;1.02;;;;;;;4.52;74.46;97110.84;6099687;29;20533;-67
2023/12/21 12:49:11;;;;;;;2.88;2.42;;;;;;;4.48;73.79;97108.38;6099853;29;20076;-68
2023/12/21 12:52:16;;;;;;;1.73;1.63;;;;;;;4.48;73.96;97105.75;6099531;29;20063;-68
2023/12/21 12:55:21;;;;;;;2.47;1.58;;;;;;;4.41;74.76;97075.59;6099291;29;20147;-67
2023/12/21 12:58:29;;;;;;;2.25;1.55;;;;;;;4.24;75.56;97077.97;6099178;29;20052;-67
2023/12/21 13:01:33;;;;;;;1.88;1.20;;;;;;;4.26;75.32;97071.81;6098941;29;20060;-67
2023/12/21 13:04:35;;;;;;;2.05;1.15;;;;;;;4.14;75.75;97061.00;6098943;29;20048;-68
2023/12/21 13:07:41;;;;;;;1.88;1.30;;;;;;;4.24;75.58;97075.38;6103994;29;20040;-66
2023/12/21 13:10:45;;;;;;;1.73;1.55;;;;;;;4.10;75.84;97070.66;6104296;29;20566;-67
2023/12/21 13:13:49;;;;;;;2.40;1.08;;;;;;;4.20;75.60;97063.38;6104156;29;20055;-67
2023/12/21 13:16:55;;;;;;;3.22;1.70;;;;;;;4.14;75.69;97058.41;6104022;29;20052;-67
2023/12/21 13:19:59;;;;;;;3.22;1.50;;;;;;;4.13;75.38;97054.09;6103749;29;20039;-66
2023/12/21 13:23:03;;;;;;;2.03;1.30;;;;;;;4.06;75.35;97058.69;6104214;29;20048;-66
2023/12/21 13:26:08;;;;;;;2.20;1.45;;;;;;;4.17;74.56;97063.50;6103776;29;20414;-67
2023/12/21 13:29:20;;;;;;;2.45;1.50;;;;;;;3.97;75.04;97066.81;6104096;29;20782;-67
2023/12/21 13:32:24;;;;;;;2.22;1.55;;;;;;;3.89;74.42;97072.28;6104341;29;20044;-66
2023/12/21 13:35:32;;;;;;;2.50;1.38;;;;;;;3.85;74.66;97086.34;6087200;29;20044;-67
2023/12/21 13:38:37;;;;;;;1.90;1.38;;;;;;;3.82;74.09;97082.09;6103752;29;20051;-66
2023/12/21 13:41:38;;;;;;;2.38;1.30;;;;;;;3.75;73.91;97080.56;6103117;29;20062;-66
2023/12/21 13:44:42;;;;;;;2.72;1.88;;;;;;;3.85;72.72;97081.13;6102736;29;20146;-67
2023/12/21 13:47:47;;;;;;;0.93;0.70;;;;;;;3.94;71.58;97074.75;6102970;29;20052;-69
2023/12/21 13:50:51;;;;;;;1.75;1.52;;;;;;;3.91;71.54;97095.69;6103320;29;20498;-66
2023/12/21 13:53:53;;;;;;;1.80;1.38;;;;;;;4.00;70.85;97077.97;6086177;29;20059;-66
2023/12/21 13:56:58;;;;;;;1.55;1.40;;;;;;;3.97;70.92;97098.91;6102591;29;20052;-67
2023/12/21 14:00:03;;;;;;;2.78;1.30;;;;;;;3.98;70.77;97091.94;6102683;29;20055;-67
2023/12/21 14:03:06;;;;;;;2.65;2.20;;;;;;;3.99;70.38;97099.72;6100931;29;20431;-67
2023/12/21 14:06:07;;;;;;;4.07;1.60;;;;;;;4.04;70.39;97092.56;6101213;29;20059;-67
2023/12/21 14:09:08;;;;;;;4.07;2.30;;;;;;;4.13;70.04;97080.13;6100708;29;20063;-67
2023/12/21 14:12:12;;;;;;;2.20;1.58;;;;;;;4.16;69.85;97085.22;6101554;29;20048;-67
2023/12/21 14:15:14;;;;;;;2.65;1.63;;;;;;;4.06;70.24;97105.53;6101282;29;20048;-68
2023/12/21 14:18:21;;;;;;;1.90;1.50;;;;;;;4.00;70.22;97092.75;6101215;29;20044;-68
2023/12/21 14:21:22;;;;;;;1.52;1.30;;;;;;;3.96;70.08;97088.53;6100973;29;20061;-68
2023/12/21 14:24:24;;;;;;;4.78;2.70;;;;;;;3.72;70.74;97114.50;6101505;29;20525;-68
2023/12/21 14:27:26;;;;;;;3.03;2.40;;;;;;;3.59;71.54;97134.03;6100584;29;20056;-68
2023/12/21 14:30:27;;;;;;;4.00;2.95;;;;;;;3.63;71.33;97134.81;6100819;29;20541;-68
2023/12/21 14:33:29;;;;;;;3.25;2.67;;;;;;;3.64;71.42;97128.69;6100575;29;20063;-68
2023/12/21 14:36:33;;;;;;;5.35;3.47;;;;;;;3.74;70.80;97122.28;6101203;29;20125;-68
2023/12/21 14:39:37;;;;;;;3.80;3.05;;;;;;;3.73;71.07;97128.38;6100298;29;20135;-68